sensor_id;sensor_type;location;lat;lon;timestamp;temperature;humidity
8099;DHT22;4092;47.876;9.372;2024-03-08T00:01:27;0.90;99.90
8099;DHT22;4092;47.876;9.372;2024-03-08T00:03:54;0.80;99.90
8099;DHT22;4092;47.876;9.372;2024-03-08T00:06:21;0.80;99.90
8099;DHT22;4092;47.876;9.372;2024-03-08T00:08:49;0.80;99.90
8099;DHT22;4092;47.876;9.372;2024-03-08T00:11:16;0.80;99.90
8099;DHT22;4092;47.876;9.372;2024-03-08T00:13:45;0.80;99.90
8099;DHT22;4092;47.876;9.372;2024-03-08T00:16:12;0.80;99.90
8099;DHT22;4092;47.876;9.372;2024-03-08T00:18:39;0.80;99.90
8099;DHT22;4092;47.876;9.372;2024-03-08T00:21:06;0.70;99.90
8099;DHT22;4092;47.876;9.372;2024-03-08T00:23:34;0.70;99.90
8099;DHT22;4092;47.876;9.372;2024-03-08T00:26:02;0.70;99.90
8099;DHT22;4092;47.876;9.372;2024-03-08T00:28:29;0.70;99.90
8099;DHT22;4092;47.876;9.372;2024-03-08T00:30:59;0.70;99.90
8099;DHT22;4092;47.876;9.372;2024-03-08T00:33:26;0.70;99.90
8099;DHT22;4092;47.876;9.372;2024-03-08T00:35:53;0.70;99.90
8099;DHT22;4092;47.876;9.372;2024-03-08T00:38:21;0.70;99.90
8099;DHT22;4092;47.876;9.372;2024-03-08T00:40:48;0.60;99.90
8099;DHT22;4092;47.876;9.372;2024-03-08T00:43:15;0.60;99.90
8099;DHT22;4092;47.876;9.372;2024-03-08T00:45:43;0.60;99.90
8099;DHT22;4092;47.876;9.372;2024-03-08T00:48:11;0.60;99.90
8099;DHT22;4092;47.876;9.372;2024-03-08T00:50:39;0.60;99.90
8099;DHT22;4092;47.876;9.372;2024-03-08T00:53:06;0.50;99.90
8099;DHT22;4092;47.876;9.372;2024-03-08T00:55:33;0.50;99.90
8099;DHT22;4092;47.876;9.372;2024-03-08T00:58:01;0.50;99.90
8099;DHT22;4092;47.876;9.372;2024-03-08T01:00:28;0.50;99.90
8099;DHT22;4092;47.876;9.372;2024-03-08T01:02:55;0.50;99.90
8099;DHT22;4092;47.876;9.372;2024-03-08T01:05:24;0.50;99.90
8099;DHT22;4092;47.876;9.372;2024-03-08T01:07:51;0.50;99.90
8099;DHT22;4092;47.876;9.372;2024-03-08T01:10:18;0.40;99.90
8099;DHT22;4092;47.876;9.372;2024-03-08T01:12:45;0.40;99.90
8099;DHT22;4092;47.876;9.372;2024-03-08T01:15:12;0.40;99.90
8099;DHT22;4092;47.876;9.372;2024-03-08T01:17:40;0.40;99.90
8099;DHT22;4092;47.876;9.372;2024-03-08T01:20:09;0.40;99.90
8099;DHT22;4092;47.876;9.372;2024-03-08T01:22:40;0.40;99.90
8099;DHT22;4092;47.876;9.372;2024-03-08T01:25:08;0.40;99.90
8099;DHT22;4092;47.876;9.372;2024-03-08T01:27:35;0.50;99.90
8099;DHT22;4092;47.876;9.372;2024-03-08T01:30:02;0.40;99.90
8099;DHT22;4092;47.876;9.372;2024-03-08T01:32:30;0.40;99.90
8099;DHT22;4092;47.876;9.372;2024-03-08T01:34:57;0.40;99.90
8099;DHT22;4092;47.876;9.372;2024-03-08T01:37:24;0.40;99.90
8099;DHT22;4092;47.876;9.372;2024-03-08T01:39:52;0.40;99.90
8099;DHT22;4092;47.876;9.372;2024-03-08T01:42:19;0.40;99.90
8099;DHT22;4092;47.876;9.372;2024-03-08T01:44:47;0.40;99.90
8099;DHT22;4092;47.876;9.372;2024-03-08T01:47:14;0.40;99.90
8099;DHT22;4092;47.876;9.372;2024-03-08T01:49:42;0.40;99.90
8099;DHT22;4092;47.876;9.372;2024-03-08T01:52:09;0.40;99.90
8099;DHT22;4092;47.876;9.372;2024-03-08T01:54:38;0.40;99.90
8099;DHT22;4092;47.876;9.372;2024-03-08T01:57:08;0.30;99.90
8099;DHT22;4092;47.876;9.372;2024-03-08T01:59:36;0.30;99.90
8099;DHT22;4092;47.876;9.372;2024-03-08T02:02:05;0.30;99.90
8099;DHT22;4092;47.876;9.372;2024-03-08T02:04:34;0.40;99.90
8099;DHT22;4092;47.876;9.372;2024-03-08T02:07:02;0.40;99.90
8099;DHT22;4092;47.876;9.372;2024-03-08T02:09:30;0.40;99.90
8099;DHT22;4092;47.876;9.372;2024-03-08T02:11:57;0.40;99.90
8099;DHT22;4092;47.876;9.372;2024-03-08T02:14:26;0.40;99.90
8099;DHT22;4092;47.876;9.372;2024-03-08T02:16:54;0.40;99.90
8099;DHT22;4092;47.876;9.372;2024-03-08T02:19:23;0.30;99.90
8099;DHT22;4092;47.876;9.372;2024-03-08T02:21:51;0.40;99.90
8099;DHT22;4092;47.876;9.372;2024-03-08T02:24:19;0.40;99.90
8099;DHT22;4092;47.876;9.372;2024-03-08T02:26:47;0.40;99.90
8099;DHT22;4092;47.876;9.372;2024-03-08T02:29:14;0.40;99.90
8099;DHT22;4092;47.876;9.372;2024-03-08T02:31:41;0.40;99.90
8099;DHT22;4092;47.876;9.372;2024-03-08T02:34:10;0.40;99.90
8099;DHT22;4092;47.876;9.372;2024-03-08T02:36:37;0.30;99.90
8099;DHT22;4092;47.876;9.372;2024-03-08T02:39:05;0.40;99.90
8099;DHT22;4092;47.876;9.372;2024-03-08T02:41:33;0.30;99.90
8099;DHT22;4092;47.876;9.372;2024-03-08T02:44:00;0.30;99.90
8099;DHT22;4092;47.876;9.372;2024-03-08T02:46:28;0.30;99.90
8099;DHT22;4092;47.876;9.372;2024-03-08T02:48:55;0.30;99.90
8099;DHT22;4092;47.876;9.372;2024-03-08T02:51:23;0.30;99.90
8099;DHT22;4092;47.876;9.372;2024-03-08T02:53:52;0.30;99.90
8099;DHT22;4092;47.876;9.372;2024-03-08T02:56:20;0.30;99.90
8099;DHT22;4092;47.876;9.372;2024-03-08T02:58:49;0.30;99.90
8099;DHT22;4092;47.876;9.372;2024-03-08T03:01:16;0.30;99.90
8099;DHT22;4092;47.876;9.372;2024-03-08T03:03:43;0.30;99.90
8099;DHT22;4092;47.876;9.372;2024-03-08T03:06:10;0.30;99.90
8099;DHT22;4092;47.876;9.372;2024-03-08T03:08:37;0.30;99.90
8099;DHT22;4092;47.876;9.372;2024-03-08T03:11:09;0.30;99.90
8099;DHT22;4092;47.876;9.372;2024-03-08T03:13:38;0.30;99.90
8099;DHT22;4092;47.876;9.372;2024-03-08T03:16:05;0.30;99.90
8099;DHT22;4092;47.876;9.372;2024-03-08T03:18:32;0.30;99.90
8099;DHT22;4092;47.876;9.372;2024-03-08T03:20:59;0.30;99.90
8099;DHT22;4092;47.876;9.372;2024-03-08T03:23:32;0.30;99.90
8099;DHT22;4092;47.876;9.372;2024-03-08T03:26:00;0.30;99.90
8099;DHT22;4092;47.876;9.372;2024-03-08T03:28:28;0.30;99.90
8099;DHT22;4092;47.876;9.372;2024-03-08T03:30:56;0.30;99.90
8099;DHT22;4092;47.876;9.372;2024-03-08T03:33:24;0.30;99.90
8099;DHT22;4092;47.876;9.372;2024-03-08T03:35:51;0.30;99.90
8099;DHT22;4092;47.876;9.372;2024-03-08T03:38:18;0.30;99.90
8099;DHT22;4092;47.876;9.372;2024-03-08T03:40:46;0.30;99.90
8099;DHT22;4092;47.876;9.372;2024-03-08T03:43:14;0.30;99.90
8099;DHT22;4092;47.876;9.372;2024-03-08T03:45:42;0.20;99.90
8099;DHT22;4092;47.876;9.372;2024-03-08T03:48:10;0.20;99.90
8099;DHT22;4092;47.876;9.372;2024-03-08T03:50:38;0.20;99.90
8099;DHT22;4092;47.876;9.372;2024-03-08T03:53:09;0.20;99.90
8099;DHT22;4092;47.876;9.372;2024-03-08T03:55:36;0.20;99.90
8099;DHT22;4092;47.876;9.372;2024-03-08T03:58:05;0.20;99.90
8099;DHT22;4092;47.876;9.372;2024-03-08T04:00:32;0.20;99.90
8099;DHT22;4092;47.876;9.372;2024-03-08T04:02:59;0.20;99.90
8099;DHT22;4092;47.876;9.372;2024-03-08T04:05:28;0.20;99.90
8099;DHT22;4092;47.876;9.372;2024-03-08T04:07:55;0.20;99.90
8099;DHT22;4092;47.876;9.372;2024-03-08T04:10:22;0.20;99.90
8099;DHT22;4092;47.876;9.372;2024-03-08T04:12:49;0.10;99.90
8099;DHT22;4092;47.876;9.372;2024-03-08T04:15:19;0.10;99.90
8099;DHT22;4092;47.876;9.372;2024-03-08T04:17:48;0.10;99.90
8099;DHT22;4092;47.876;9.372;2024-03-08T04:20:15;0.20;99.90
8099;DHT22;4092;47.876;9.372;2024-03-08T04:22:44;0.20;99.90
8099;DHT22;4092;47.876;9.372;2024-03-08T04:25:14;0.20;99.90
8099;DHT22;4092;47.876;9.372;2024-03-08T04:27:43;0.20;99.90
8099;DHT22;4092;47.876;9.372;2024-03-08T04:30:13;0.20;99.90
8099;DHT22;4092;47.876;9.372;2024-03-08T04:32:42;0.20;99.90
8099;DHT22;4092;47.876;9.372;2024-03-08T04:35:09;0.20;99.90
8099;DHT22;4092;47.876;9.372;2024-03-08T04:37:38;0.20;99.90
8099;DHT22;4092;47.876;9.372;2024-03-08T04:40:09;0.10;99.90
8099;DHT22;4092;47.876;9.372;2024-03-08T04:42:37;0.10;99.90
8099;DHT22;4092;47.876;9.372;2024-03-08T04:45:06;0.10;99.90
8099;DHT22;4092;47.876;9.372;2024-03-08T04:47:33;0.10;99.90
8099;DHT22;4092;47.876;9.372;2024-03-08T04:50:02;0.10;99.90
8099;DHT22;4092;47.876;9.372;2024-03-08T04:52:30;0.10;99.90
8099;DHT22;4092;47.876;9.372;2024-03-08T04:54:57;0.10;99.90
8099;DHT22;4092;47.876;9.372;2024-03-08T04:57:26;0.10;99.90
8099;DHT22;4092;47.876;9.372;2024-03-08T04:59:53;0.10;99.90
8099;DHT22;4092;47.876;9.372;2024-03-08T05:02:20;0.10;99.90
8099;DHT22;4092;47.876;9.372;2024-03-08T05:04:49;0.10;99.90
8099;DHT22;4092;47.876;9.372;2024-03-08T05:07:16;0.00;99.90
8099;DHT22;4092;47.876;9.372;2024-03-08T05:09:45;0.00;99.90
8099;DHT22;4092;47.876;9.372;2024-03-08T05:12:17;0.00;99.90
8099;DHT22;4092;47.876;9.372;2024-03-08T05:14:46;0.10;99.90
8099;DHT22;4092;47.876;9.372;2024-03-08T05:17:15;0.10;99.90
8099;DHT22;4092;47.876;9.372;2024-03-08T05:19:42;0.10;99.90
8099;DHT22;4092;47.876;9.372;2024-03-08T05:22:09;0.10;99.90
8099;DHT22;4092;47.876;9.372;2024-03-08T05:24:36;0.10;99.90
8099;DHT22;4092;47.876;9.372;2024-03-08T05:27:03;0.10;99.90
8099;DHT22;4092;47.876;9.372;2024-03-08T05:29:30;0.20;99.90
8099;DHT22;4092;47.876;9.372;2024-03-08T05:32:00;0.20;99.90
8099;DHT22;4092;47.876;9.372;2024-03-08T05:34:28;0.20;99.90
8099;DHT22;4092;47.876;9.372;2024-03-08T05:36:55;0.20;99.90
8099;DHT22;4092;47.876;9.372;2024-03-08T05:39:23;0.20;99.90
8099;DHT22;4092;47.876;9.372;2024-03-08T05:41:53;0.20;99.90
8099;DHT22;4092;47.876;9.372;2024-03-08T05:44:22;0.10;99.90
8099;DHT22;4092;47.876;9.372;2024-03-08T05:46:49;0.20;99.90
8099;DHT22;4092;47.876;9.372;2024-03-08T05:49:17;0.20;99.90
8099;DHT22;4092;47.876;9.372;2024-03-08T05:51:44;0.20;99.90
8099;DHT22;4092;47.876;9.372;2024-03-08T05:54:13;0.20;99.90
8099;DHT22;4092;47.876;9.372;2024-03-08T05:56:40;0.10;99.90
8099;DHT22;4092;47.876;9.372;2024-03-08T05:59:09;0.10;99.90
8099;DHT22;4092;47.876;9.372;2024-03-08T06:01:37;0.10;99.90
8099;DHT22;4092;47.876;9.372;2024-03-08T06:04:06;0.10;99.90
8099;DHT22;4092;47.876;9.372;2024-03-08T06:06:35;0.10;99.90
8099;DHT22;4092;47.876;9.372;2024-03-08T06:09:03;0.10;99.90
8099;DHT22;4092;47.876;9.372;2024-03-08T06:11:37;0.20;99.90
8099;DHT22;4092;47.876;9.372;2024-03-08T06:14:04;0.20;99.90
8099;DHT22;4092;47.876;9.372;2024-03-08T06:16:32;0.20;99.90
8099;DHT22;4092;47.876;9.372;2024-03-08T06:18:59;0.20;99.90
8099;DHT22;4092;47.876;9.372;2024-03-08T06:21:27;0.20;99.90
8099;DHT22;4092;47.876;9.372;2024-03-08T06:23:56;0.20;99.90
8099;DHT22;4092;47.876;9.372;2024-03-08T06:26:24;0.20;99.90
8099;DHT22;4092;47.876;9.372;2024-03-08T06:28:54;0.20;99.90
8099;DHT22;4092;47.876;9.372;2024-03-08T06:31:21;0.20;99.90
8099;DHT22;4092;47.876;9.372;2024-03-08T06:33:48;0.20;99.90
8099;DHT22;4092;47.876;9.372;2024-03-08T06:36:16;0.20;99.90
8099;DHT22;4092;47.876;9.372;2024-03-08T06:38:44;0.20;99.90
8099;DHT22;4092;47.876;9.372;2024-03-08T06:41:13;0.20;99.90
8099;DHT22;4092;47.876;9.372;2024-03-08T06:43:42;0.30;99.90
8099;DHT22;4092;47.876;9.372;2024-03-08T06:46:09;0.30;99.90
8099;DHT22;4092;47.876;9.372;2024-03-08T06:48:38;0.40;99.90
8099;DHT22;4092;47.876;9.372;2024-03-08T06:51:05;0.40;99.90
8099;DHT22;4092;47.876;9.372;2024-03-08T06:53:33;0.40;99.90
8099;DHT22;4092;47.876;9.372;2024-03-08T06:56:01;0.40;99.90
8099;DHT22;4092;47.876;9.372;2024-03-08T06:58:29;0.50;99.90
8099;DHT22;4092;47.876;9.372;2024-03-08T07:00:58;0.50;99.90
8099;DHT22;4092;47.876;9.372;2024-03-08T07:03:26;0.50;99.90
8099;DHT22;4092;47.876;9.372;2024-03-08T07:05:55;0.40;99.90
8099;DHT22;4092;47.876;9.372;2024-03-08T07:08:23;0.40;99.90
8099;DHT22;4092;47.876;9.372;2024-03-08T07:10:52;0.40;99.90
8099;DHT22;4092;47.876;9.372;2024-03-08T07:13:19;0.40;99.90
8099;DHT22;4092;47.876;9.372;2024-03-08T07:15:48;0.40;99.90
8099;DHT22;4092;47.876;9.372;2024-03-08T07:18:17;0.40;99.90
8099;DHT22;4092;47.876;9.372;2024-03-08T07:20:44;0.40;99.90
8099;DHT22;4092;47.876;9.372;2024-03-08T07:23:11;0.50;99.90
8099;DHT22;4092;47.876;9.372;2024-03-08T07:25:58;0.50;99.90
8099;DHT22;4092;47.876;9.372;2024-03-08T07:28:26;0.50;99.90
8099;DHT22;4092;47.876;9.372;2024-03-08T07:30:57;0.50;99.90
8099;DHT22;4092;47.876;9.372;2024-03-08T07:33:38;0.50;99.90
8099;DHT22;4092;47.876;9.372;2024-03-08T07:36:05;0.50;99.90
8099;DHT22;4092;47.876;9.372;2024-03-08T07:38:32;0.40;99.90
8099;DHT22;4092;47.876;9.372;2024-03-08T07:41:00;0.50;99.90
8099;DHT22;4092;47.876;9.372;2024-03-08T07:43:27;0.50;99.90
8099;DHT22;4092;47.876;9.372;2024-03-08T07:45:58;0.50;99.90
8099;DHT22;4092;47.876;9.372;2024-03-08T07:48:25;0.40;99.90
8099;DHT22;4092;47.876;9.372;2024-03-08T07:50:52;0.40;99.90
8099;DHT22;4092;47.876;9.372;2024-03-08T07:53:19;0.50;99.90
8099;DHT22;4092;47.876;9.372;2024-03-08T07:55:46;0.60;99.90
8099;DHT22;4092;47.876;9.372;2024-03-08T07:58:13;0.60;99.90
8099;DHT22;4092;47.876;9.372;2024-03-08T08:00:40;0.60;99.90
8099;DHT22;4092;47.876;9.372;2024-03-08T08:03:10;0.50;99.90
8099;DHT22;4092;47.876;9.372;2024-03-08T08:05:38;0.50;99.90
8099;DHT22;4092;47.876;9.372;2024-03-08T08:08:05;0.50;99.90
8099;DHT22;4092;47.876;9.372;2024-03-08T08:10:36;0.50;99.90
8099;DHT22;4092;47.876;9.372;2024-03-08T08:13:03;0.60;99.90
8099;DHT22;4092;47.876;9.372;2024-03-08T08:15:30;0.60;99.90
8099;DHT22;4092;47.876;9.372;2024-03-08T08:17:59;0.60;99.90
8099;DHT22;4092;47.876;9.372;2024-03-08T08:20:29;0.60;99.90
8099;DHT22;4092;47.876;9.372;2024-03-08T08:22:57;0.60;99.90
8099;DHT22;4092;47.876;9.372;2024-03-08T08:25:24;0.60;99.90
8099;DHT22;4092;47.876;9.372;2024-03-08T08:27:51;0.60;99.90
8099;DHT22;4092;47.876;9.372;2024-03-08T08:30:19;0.70;99.90
8099;DHT22;4092;47.876;9.372;2024-03-08T08:32:47;0.70;99.90
8099;DHT22;4092;47.876;9.372;2024-03-08T08:35:14;0.70;99.90
8099;DHT22;4092;47.876;9.372;2024-03-08T08:37:43;0.70;99.90
8099;DHT22;4092;47.876;9.372;2024-03-08T08:40:11;0.80;99.90
8099;DHT22;4092;47.876;9.372;2024-03-08T08:42:40;0.80;99.90
8099;DHT22;4092;47.876;9.372;2024-03-08T08:45:08;0.80;99.90
8099;DHT22;4092;47.876;9.372;2024-03-08T08:47:36;0.80;99.90
8099;DHT22;4092;47.876;9.372;2024-03-08T08:50:04;0.90;99.90
8099;DHT22;4092;47.876;9.372;2024-03-08T08:52:31;0.90;99.90
8099;DHT22;4092;47.876;9.372;2024-03-08T08:55:00;1.00;99.90
8099;DHT22;4092;47.876;9.372;2024-03-08T08:57:29;0.90;99.90
8099;DHT22;4092;47.876;9.372;2024-03-08T08:59:58;1.00;99.90
8099;DHT22;4092;47.876;9.372;2024-03-08T09:02:26;1.10;99.90
8099;DHT22;4092;47.876;9.372;2024-03-08T09:04:52;1.20;99.90
8099;DHT22;4092;47.876;9.372;2024-03-08T09:07:20;1.20;99.90
8099;DHT22;4092;47.876;9.372;2024-03-08T09:09:49;1.30;99.90
8099;DHT22;4092;47.876;9.372;2024-03-08T09:12:18;1.30;99.90
8099;DHT22;4092;47.876;9.372;2024-03-08T09:14:45;1.40;99.90
8099;DHT22;4092;47.876;9.372;2024-03-08T09:17:12;1.40;99.90
8099;DHT22;4092;47.876;9.372;2024-03-08T09:19:43;1.40;99.90
8099;DHT22;4092;47.876;9.372;2024-03-08T09:22:12;1.50;99.90
8099;DHT22;4092;47.876;9.372;2024-03-08T09:24:42;1.50;99.90
8099;DHT22;4092;47.876;9.372;2024-03-08T09:27:10;1.50;99.90
8099;DHT22;4092;47.876;9.372;2024-03-08T09:29:39;1.40;99.90
8099;DHT22;4092;47.876;9.372;2024-03-08T09:32:07;1.40;99.90
8099;DHT22;4092;47.876;9.372;2024-03-08T09:34:34;1.40;99.90
8099;DHT22;4092;47.876;9.372;2024-03-08T09:37:02;1.40;99.90
8099;DHT22;4092;47.876;9.372;2024-03-08T09:39:31;1.50;99.90
8099;DHT22;4092;47.876;9.372;2024-03-08T09:41:59;1.50;99.90
8099;DHT22;4092;47.876;9.372;2024-03-08T09:44:31;1.60;99.90
8099;DHT22;4092;47.876;9.372;2024-03-08T09:47:03;1.70;99.90
8099;DHT22;4092;47.876;9.372;2024-03-08T09:49:32;1.80;99.90
8099;DHT22;4092;47.876;9.372;2024-03-08T09:52:02;1.90;99.90
8099;DHT22;4092;47.876;9.372;2024-03-08T09:54:32;1.90;99.90
8099;DHT22;4092;47.876;9.372;2024-03-08T09:56:59;2.00;99.90
8099;DHT22;4092;47.876;9.372;2024-03-08T09:59:29;2.00;99.90
8099;DHT22;4092;47.876;9.372;2024-03-08T10:02:18;2.00;99.90
8099;DHT22;4092;47.876;9.372;2024-03-08T10:04:46;2.00;99.90
8099;DHT22;4092;47.876;9.372;2024-03-08T10:07:13;1.90;99.90
8099;DHT22;4092;47.876;9.372;2024-03-08T10:09:41;2.00;99.90
8099;DHT22;4092;47.876;9.372;2024-03-08T10:12:16;2.00;99.90
8099;DHT22;4092;47.876;9.372;2024-03-08T10:14:46;2.00;99.90
8099;DHT22;4092;47.876;9.372;2024-03-08T10:17:14;2.10;99.90
8099;DHT22;4092;47.876;9.372;2024-03-08T10:19:51;2.10;99.90
8099;DHT22;4092;47.876;9.372;2024-03-08T10:22:21;2.10;99.90
8099;DHT22;4092;47.876;9.372;2024-03-08T10:24:50;2.10;99.90
8099;DHT22;4092;47.876;9.372;2024-03-08T10:27:19;2.10;99.90
8099;DHT22;4092;47.876;9.372;2024-03-08T10:29:48;2.10;99.90
8099;DHT22;4092;47.876;9.372;2024-03-08T10:32:18;2.20;99.90
8099;DHT22;4092;47.876;9.372;2024-03-08T10:34:51;2.20;99.90
8099;DHT22;4092;47.876;9.372;2024-03-08T10:37:21;2.10;99.90
8099;DHT22;4092;47.876;9.372;2024-03-08T10:40:00;2.10;99.90
8099;DHT22;4092;47.876;9.372;2024-03-08T10:42:40;2.10;99.90
8099;DHT22;4092;47.876;9.372;2024-03-08T10:45:19;2.10;99.90
8099;DHT22;4092;47.876;9.372;2024-03-08T10:47:49;2.20;99.90
8099;DHT22;4092;47.876;9.372;2024-03-08T10:50:21;2.30;99.90
8099;DHT22;4092;47.876;9.372;2024-03-08T10:52:50;2.40;99.90
8099;DHT22;4092;47.876;9.372;2024-03-08T10:55:19;2.50;99.90
8099;DHT22;4092;47.876;9.372;2024-03-08T10:57:48;2.60;99.90
8099;DHT22;4092;47.876;9.372;2024-03-08T11:00:15;2.60;99.90
8099;DHT22;4092;47.876;9.372;2024-03-08T11:02:45;2.60;99.90
8099;DHT22;4092;47.876;9.372;2024-03-08T11:05:35;2.70;99.90
8099;DHT22;4092;47.876;9.372;2024-03-08T11:08:15;2.70;99.90
8099;DHT22;4092;47.876;9.372;2024-03-08T11:10:48;2.80;99.90
8099;DHT22;4092;47.876;9.372;2024-03-08T11:13:33;2.90;99.90
8099;DHT22;4092;47.876;9.372;2024-03-08T11:16:01;2.90;99.90
8099;DHT22;4092;47.876;9.372;2024-03-08T11:18:32;3.00;99.90
8099;DHT22;4092;47.876;9.372;2024-03-08T11:21:04;3.10;99.90
8099;DHT22;4092;47.876;9.372;2024-03-08T11:23:38;3.10;99.90
8099;DHT22;4092;47.876;9.372;2024-03-08T11:26:17;3.00;99.90
8099;DHT22;4092;47.876;9.372;2024-03-08T11:28:44;3.00;99.90
8099;DHT22;4092;47.876;9.372;2024-03-08T11:31:25;2.90;99.90
8099;DHT22;4092;47.876;9.372;2024-03-08T11:33:57;2.90;99.90
8099;DHT22;4092;47.876;9.372;2024-03-08T11:36:26;3.00;99.90
8099;DHT22;4092;47.876;9.372;2024-03-08T11:39:05;3.10;99.90
8099;DHT22;4092;47.876;9.372;2024-03-08T11:41:40;3.10;99.90
8099;DHT22;4092;47.876;9.372;2024-03-08T11:44:13;3.20;99.90
8099;DHT22;4092;47.876;9.372;2024-03-08T11:46:41;3.20;99.90
8099;DHT22;4092;47.876;9.372;2024-03-08T11:49:13;3.30;99.90
8099;DHT22;4092;47.876;9.372;2024-03-08T11:51:43;3.40;99.90
8099;DHT22;4092;47.876;9.372;2024-03-08T11:54:12;3.40;99.90
8099;DHT22;4092;47.876;9.372;2024-03-08T11:56:41;3.40;99.90
8099;DHT22;4092;47.876;9.372;2024-03-08T11:59:11;3.40;99.90
8099;DHT22;4092;47.876;9.372;2024-03-08T12:01:41;3.40;99.90
8099;DHT22;4092;47.876;9.372;2024-03-08T12:04:12;3.40;99.90
8099;DHT22;4092;47.876;9.372;2024-03-08T12:06:42;3.50;99.90
8099;DHT22;4092;47.876;9.372;2024-03-08T12:09:16;3.70;99.90
8099;DHT22;4092;47.876;9.372;2024-03-08T12:11:48;3.80;99.90
8099;DHT22;4092;47.876;9.372;2024-03-08T12:14:18;3.80;99.90
8099;DHT22;4092;47.876;9.372;2024-03-08T12:16:46;3.80;99.90
8099;DHT22;4092;47.876;9.372;2024-03-08T12:19:16;3.90;99.90
8099;DHT22;4092;47.876;9.372;2024-03-08T12:21:48;4.00;99.90
8099;DHT22;4092;47.876;9.372;2024-03-08T12:24:16;4.20;99.90
8099;DHT22;4092;47.876;9.372;2024-03-08T12:26:48;4.30;99.90
8099;DHT22;4092;47.876;9.372;2024-03-08T12:29:18;4.40;99.90
8099;DHT22;4092;47.876;9.372;2024-03-08T12:31:49;4.30;99.90
8099;DHT22;4092;47.876;9.372;2024-03-08T12:34:20;4.40;99.90
8099;DHT22;4092;47.876;9.372;2024-03-08T12:36:52;4.50;99.90
8099;DHT22;4092;47.876;9.372;2024-03-08T12:39:20;4.60;99.90
8099;DHT22;4092;47.876;9.372;2024-03-08T12:41:52;4.60;99.90
8099;DHT22;4092;47.876;9.372;2024-03-08T12:44:20;4.60;99.90
8099;DHT22;4092;47.876;9.372;2024-03-08T12:46:49;4.60;99.90
8099;DHT22;4092;47.876;9.372;2024-03-08T12:49:17;4.50;99.90
8099;DHT22;4092;47.876;9.372;2024-03-08T12:51:44;4.60;99.90
8099;DHT22;4092;47.876;9.372;2024-03-08T12:54:13;4.60;99.90
8099;DHT22;4092;47.876;9.372;2024-03-08T12:56:40;4.70;99.90
8099;DHT22;4092;47.876;9.372;2024-03-08T12:59:08;4.80;99.90
8099;DHT22;4092;47.876;9.372;2024-03-08T13:01:35;5.00;99.90
8099;DHT22;4092;47.876;9.372;2024-03-08T13:04:03;5.20;99.90
8099;DHT22;4092;47.876;9.372;2024-03-08T13:06:32;5.20;99.90
8099;DHT22;4092;47.876;9.372;2024-03-08T13:08:59;5.20;99.90
8099;DHT22;4092;47.876;9.372;2024-03-08T13:11:33;5.10;99.90
8099;DHT22;4092;47.876;9.372;2024-03-08T13:14:03;5.20;99.90
8099;DHT22;4092;47.876;9.372;2024-03-08T13:16:31;5.10;99.90
8099;DHT22;4092;47.876;9.372;2024-03-08T13:19:00;5.10;99.90
8099;DHT22;4092;47.876;9.372;2024-03-08T13:21:27;5.20;99.90
8099;DHT22;4092;47.876;9.372;2024-03-08T13:23:57;5.50;99.90
8099;DHT22;4092;47.876;9.372;2024-03-08T13:26:29;5.90;99.90
8099;DHT22;4092;47.876;9.372;2024-03-08T13:29:00;6.20;99.90
8099;DHT22;4092;47.876;9.372;2024-03-08T13:31:27;6.50;99.90
8099;DHT22;4092;47.876;9.372;2024-03-08T13:33:54;7.10;99.90
8099;DHT22;4092;47.876;9.372;2024-03-08T13:36:24;7.60;99.90
8099;DHT22;4092;47.876;9.372;2024-03-08T13:38:57;8.10;99.90
8099;DHT22;4092;47.876;9.372;2024-03-08T13:41:24;8.30;99.90
8099;DHT22;4092;47.876;9.372;2024-03-08T13:43:52;8.40;99.90
8099;DHT22;4092;47.876;9.372;2024-03-08T13:46:23;8.70;99.90
8099;DHT22;4092;47.876;9.372;2024-03-08T13:48:52;9.00;99.90
8099;DHT22;4092;47.876;9.372;2024-03-08T13:51:20;9.40;99.90
8099;DHT22;4092;47.876;9.372;2024-03-08T13:53:49;9.60;99.90
8099;DHT22;4092;47.876;9.372;2024-03-08T13:56:16;9.70;99.90
8099;DHT22;4092;47.876;9.372;2024-03-08T13:58:44;9.90;99.90
8099;DHT22;4092;47.876;9.372;2024-03-08T14:01:11;9.80;99.90
8099;DHT22;4092;47.876;9.372;2024-03-08T14:03:41;9.50;99.90
8099;DHT22;4092;47.876;9.372;2024-03-08T14:06:08;9.50;99.90
8099;DHT22;4092;47.876;9.372;2024-03-08T14:08:37;9.30;99.90
8099;DHT22;4092;47.876;9.372;2024-03-08T14:11:06;9.60;99.90
8099;DHT22;4092;47.876;9.372;2024-03-08T14:13:41;9.90;99.90
8099;DHT22;4092;47.876;9.372;2024-03-08T14:16:11;10.00;99.90
8099;DHT22;4092;47.876;9.372;2024-03-08T14:18:41;10.00;99.90
8099;DHT22;4092;47.876;9.372;2024-03-08T14:21:09;10.00;99.90
8099;DHT22;4092;47.876;9.372;2024-03-08T14:23:40;10.30;99.90
8099;DHT22;4092;47.876;9.372;2024-03-08T14:26:07;10.60;99.90
8099;DHT22;4092;47.876;9.372;2024-03-08T14:28:37;10.80;99.90
8099;DHT22;4092;47.876;9.372;2024-03-08T14:31:05;10.90;99.90
8099;DHT22;4092;47.876;9.372;2024-03-08T14:33:36;11.00;99.90
8099;DHT22;4092;47.876;9.372;2024-03-08T14:36:06;11.10;99.90
8099;DHT22;4092;47.876;9.372;2024-03-08T14:38:33;11.10;99.90
8099;DHT22;4092;47.876;9.372;2024-03-08T14:41:00;11.00;99.90
8099;DHT22;4092;47.876;9.372;2024-03-08T14:43:29;11.20;99.90
8099;DHT22;4092;47.876;9.372;2024-03-08T14:45:57;11.20;99.90
8099;DHT22;4092;47.876;9.372;2024-03-08T14:48:24;11.30;99.90
8099;DHT22;4092;47.876;9.372;2024-03-08T14:50:51;11.20;99.90
8099;DHT22;4092;47.876;9.372;2024-03-08T14:53:19;11.40;99.90
8099;DHT22;4092;47.876;9.372;2024-03-08T14:55:47;11.60;99.90
8099;DHT22;4092;47.876;9.372;2024-03-08T14:58:14;11.70;99.90
8099;DHT22;4092;47.876;9.372;2024-03-08T15:00:41;12.00;99.90
8099;DHT22;4092;47.876;9.372;2024-03-08T15:03:09;12.10;99.90
8099;DHT22;4092;47.876;9.372;2024-03-08T15:05:38;12.20;99.90
8099;DHT22;4092;47.876;9.372;2024-03-08T15:08:07;12.20;99.90
8099;DHT22;4092;47.876;9.372;2024-03-08T15:10:47;12.30;99.90
8099;DHT22;4092;47.876;9.372;2024-03-08T15:13:19;12.40;99.90
8099;DHT22;4092;47.876;9.372;2024-03-08T15:15:49;12.50;99.90
8099;DHT22;4092;47.876;9.372;2024-03-08T15:18:21;12.60;99.90
8099;DHT22;4092;47.876;9.372;2024-03-08T15:20:51;12.50;99.90
8099;DHT22;4092;47.876;9.372;2024-03-08T15:23:18;12.50;99.90
8099;DHT22;4092;47.876;9.372;2024-03-08T15:25:48;12.60;99.90
8099;DHT22;4092;47.876;9.372;2024-03-08T15:28:18;12.70;99.90
8099;DHT22;4092;47.876;9.372;2024-03-08T15:30:46;12.80;99.90
8099;DHT22;4092;47.876;9.372;2024-03-08T15:33:19;12.70;99.90
8099;DHT22;4092;47.876;9.372;2024-03-08T15:35:49;12.50;99.90
8099;DHT22;4092;47.876;9.372;2024-03-08T15:38:23;12.60;99.90
8099;DHT22;4092;47.876;9.372;2024-03-08T15:40:51;12.60;99.90
8099;DHT22;4092;47.876;9.372;2024-03-08T15:43:20;12.70;99.90
8099;DHT22;4092;47.876;9.372;2024-03-08T15:45:47;12.80;99.90
8099;DHT22;4092;47.876;9.372;2024-03-08T15:48:15;12.70;99.90
8099;DHT22;4092;47.876;9.372;2024-03-08T15:50:42;12.50;99.90
8099;DHT22;4092;47.876;9.372;2024-03-08T15:53:09;12.40;99.90
8099;DHT22;4092;47.876;9.372;2024-03-08T15:55:38;12.10;99.90
8099;DHT22;4092;47.876;9.372;2024-03-08T15:58:08;12.20;99.90
8099;DHT22;4092;47.876;9.372;2024-03-08T16:00:36;12.20;99.90
8099;DHT22;4092;47.876;9.372;2024-03-08T16:03:11;12.00;99.90
8099;DHT22;4092;47.876;9.372;2024-03-08T16:05:39;12.00;99.90
8099;DHT22;4092;47.876;9.372;2024-03-08T16:08:07;11.90;99.90
8099;DHT22;4092;47.876;9.372;2024-03-08T16:10:41;11.60;99.90
8099;DHT22;4092;47.876;9.372;2024-03-08T16:13:12;11.20;99.90
8099;DHT22;4092;47.876;9.372;2024-03-08T16:15:42;10.40;99.90
8099;DHT22;4092;47.876;9.372;2024-03-08T16:18:10;9.80;99.90
8099;DHT22;4092;47.876;9.372;2024-03-08T16:20:37;9.30;99.90
8099;DHT22;4092;47.876;9.372;2024-03-08T16:23:05;8.90;99.90
8099;DHT22;4092;47.876;9.372;2024-03-08T16:25:32;8.50;99.90
8099;DHT22;4092;47.876;9.372;2024-03-08T16:27:59;8.20;99.90